Hovedside
METAR-TAF:

METAR-TAF

Lufthavner :

Aneityum, Vanuatu

breddegrad: 20-14-57S, lengdegrad: 169-46-17E, høyde over havet: 2 m

Gjeldene værobservasjon

Denne rapporten ble laget for 37 minutter siden, klokken 03:00 UTC
Vind 3 kt fra Øst
Temperatur 25°C
Luftfuktighet 74%
Trykk 1013 hPa
Sikt 10 km eller mer
Spredte skyer i en høyde av 2000 ft
Brutte skyer i en høyde av 4000 ft

METAR: NVVA 200300Z 10003KT 9999 SCT020 BKN040 25/20 Q1013

Tid: 14:37 (03:37 UTC)

Varsel

Denne rapporten ble laget for 4 timer og 37 minutter siden, klokken 23:00 UTC
Varsel gyldig fra 20. klokken 00 UTC til 20. klokken 24 UTC
Vind 6 kt fra Sør-sørøst
Sikt: 9000 m
Spredte skyer i en høyde av 2000 ft
Brutte skyer i en høyde av 3800 ft
Spredte skyer i en høyde av 1200 ft
Brutte skyer i en høyde av 1600 ft
regnbyger,

TAF: NVVA 192300Z 2000/2024 16006KT 9999 SCT020 BKN038 INTER 2000/2006 9000 SHRA SCT012 BKN016

Værobservasjoner og værvarsel for over 4000 flyplasser (METAR- og TAF-rapporter).

Tilgjengelige stasjoner er representert av de røde og gule prikkene på kartet.

Hold musepekeren over prikken for å se navnet på stasjonen.

Klikk så for å se værobservasjoner og -varsler.

For å forandre kartet kan du klikke på den grønne knappen med svart kryss for å zoome inn, på den grønne knappen med strek for å zoome ut, eller på de grønne pilene for å se tilstøtende kart.


METAR-TAF: